Eek, AK

8:47 PM AKDT on August 28, 2014 (GMT -0800)
Quinhagak | Change Station
CLOSE
Current Station
Airport
Location: Quinhagak|Kwinhagak Airport,
Elevation: 43 ft
Nearby Weather Stations

Elev 43 ft 59.76 °N, 161.85 °W | Updated 22 minutes ago

Light Rain
Light Rain
55 °F
Feels Like 55 °F
N
18
Wind Variable Wind from WSW
Gusts 24 mph

Today
High -- | Low -- °F
--% Chance of Precip.
Yesterday
High -- | Low -- °F
Precip. -- in
7:34 AM 10:02 PM
Waxing Crescent, 12% visible
Pressure 29.77 in
Visibility 10.0 miles
Clouds Mostly Cloudy 1500 ft
Overcast 2100 ft
Dew Point 52 °F
Humidity 88%
Rainfall 0.00 in
Snow Depth Not available.
UV 0 out of 12
Pollen Not available.
Air Quality Not available.
Flu Activity Not available.
SPECI PAQH 290425Z AUTO 25016G21KT 10SM -RA BKN015 OVC021 13/11 A2977 RMK AO2 RAB0358 P0001

More Conditions Fewer Conditions

Pressure 29.77 in
Visibility 10.0 miles
Clouds Mostly Cloudy 1500 ft
Overcast 2100 ft
Dew Point 52 °F
Humidity 88%
Rainfall 0.00 in
Snow Depth Not available.
UV 0 out of 12
Pollen Not available.
Air Quality Not available.
Flu Activity Not available.
SPECI PAQH 290425Z AUTO 25016G21KT 10SM -RA BKN015 OVC021 13/11 A2977 RMK AO2 RAB0358 P0001

More Conditions Fewer Conditions

10-Day Weather Forecast

Almanac

Astronomy

Aug. 28, 2014 Rise Set
Actual Time 7:34 AM AKDT 10:02 PM AKDT
Civil Twilight 6:48 AM AKDT 10:47 PM AKDT
Nautical Twilight 5:48 AM AKDT 11:47 PM AKDT
Astronomical Twilight 4:24 AM AKDT 1:08 AM AKDT
Moon 11:34 AM AKDT (8/28) 10:31 PM AKDT (8/28)
Length of Visible Light 15h 58m
Length of Day
14h 27m
Tomorrow will be 5m 19s shorter.
Waxing Crescent, 12% of the Moon is Illuminated
Aug 29
Waxing Crescent
Sep 2
First Quarter
Sep 8
Full
Sep 15
Last Quarter
Sep 24
New

Yesterday's Extremes

State Highs State Lows

Community

WunderPhotos

Upload Photos

1,748,186 photos uploaded!

Nearby

Snow Depth

Station Depth Elevation
Rocky Point 5 in 500 ft
Mcneil Canyon 1 in 1320 ft
Port Graham 0 in 300 ft
MF Bradley River 3 in 2300 ft
Point Mackenzie 1 in 200 ft

Earthquake Activity

City Distance Mag. Time & Date
No recent earthquake activity has been reported nearby.
Minimum magnitude displayed is 2.5.

Coastal Water Temperatures

Place Temperature
No Stations Reporting

Nearby Weather Stations